Campground, Louisiana
Current Conditions -  °F | °C
As of 6:15 PM on Saturday 20 Dec 2014 (Local Time) from KIER Reporting Station
Clear Clear  
Wind Chill: 44°   Ceiling: Unl
Heat Index: 44°   Visibility: 10mi
Dew Point: 43°   Wind: 0mph
Humidity: 96%   Direction: NA
Pressure: 30.19"   Gusts: NA
Location:  31.6668°N, 92.8023°W
Report Text: KIER 210015Z AUTO 00000KT 10SM CLR 07/06 A3019 RMK AO2 T00680062
Loading
Personal Weather Stations






























Interactive Weather Map New forecast layout! Learn more

10-Day Weather Forecast

Advertisements
Track Severe Weather on mobile